Time,TemperatureF,DewpointF,PressureIn,WindDirection,WindDirectionDegrees,WindSpeedMPH,WindSpeedGustMPH,Humidity,HourlyPrecipIn,Conditions,Clouds,dailyrainin,SoftwareType,DateUTC
2013-01-14 00:08:00,57.8,56.0,29.85,SSW,207,2.0,8.0,94,0.01,,,0.00,weatherlink.com 1.10,2013-01-14 05:08:00,
2013-01-14 00:23:00,57.6,56.0,29.85,South,181,1.0,7.0,94,0.01,,,0.00,weatherlink.com 1.10,2013-01-14 05:23:00,
2013-01-14 00:38:00,57.5,56.0,29.85,SSW,199,1.0,7.0,94,0.00,,,0.00,weatherlink.com 1.10,2013-01-14 05:38:00,
2013-01-14 00:53:00,57.5,56.0,29.85,West,264,1.0,5.0,94,0.00,,,0.00,weatherlink.com 1.10,2013-01-14 05:53:00,
2013-01-14 01:08:00,57.6,56.0,29.84,SSE,150,3.0,5.0,94,0.00,,,0.00,weatherlink.com 1.10,2013-01-14 06:08:00,
2013-01-14 01:23:00,56.2,52.0,29.89,NW,314,9.0,13.0,87,0.01,,,0.01,weatherlink.com 1.10,2013-01-14 06:23:00,
2013-01-14 01:38:00,49.8,47.0,29.92,NW,308,13.0,19.0,90,0.02,,,0.02,weatherlink.com 1.10,2013-01-14 06:38:00,
2013-01-14 01:53:00,46.7,43.0,29.95,WNW,290,7.0,18.0,88,0.02,,,0.02,weatherlink.com 1.10,2013-01-14 06:53:00,
2013-01-14 02:08:00,43.8,41.0,29.97,North,9,7.0,22.0,90,0.02,,,0.02,weatherlink.com 1.10,2013-01-14 07:08:00,
2013-01-14 02:24:00,42.5,41.0,30.00,WNW,301,6.0,14.0,93,0.01,,,0.02,weatherlink.com 1.10,2013-01-14 07:24:00,
2013-01-14 02:39:00,41.6,40.0,30.00,WNW,302,6.0,14.0,95,0.01,,,0.03,weatherlink.com 1.10,2013-01-14 07:39:00,
2013-01-14 02:54:00,41.2,40.0,30.01,NNW,346,4.0,11.0,95,0.01,,,0.03,weatherlink.com 1.10,2013-01-14 07:54:00,
2013-01-14 03:09:00,41.2,40.0,30.02,NNW,342,8.0,9.0,96,0.01,,,0.03,weatherlink.com 1.10,2013-01-14 08:09:00,
2013-01-14 03:24:00,41.3,40.0,30.03,NNW,333,3.0,7.0,95,0.01,,,0.03,weatherlink.com 1.10,2013-01-14 08:24:00,
2013-01-14 03:39:00,41.1,40.0,30.04,NW,307,1.0,4.0,95,0.00,,,0.03,weatherlink.com 1.10,2013-01-14 08:39:00,
2013-01-14 03:54:00,40.7,39.0,30.05,SW,229,3.0,5.0,94,0.00,,,0.03,weatherlink.com 1.10,2013-01-14 08:54:00,
2013-01-14 04:09:00,40.5,39.0,30.04,NNW,342,1.0,11.0,93,0.00,,,0.03,weatherlink.com 1.10,2013-01-14 09:09:00,
2013-01-14 04:24:00,40.4,39.0,30.03,NNW,340,1.0,7.0,93,0.00,,,0.03,weatherlink.com 1.10,2013-01-14 09:24:00,
2013-01-14 04:39:00,40.5,39.0,30.05,West,261,1.0,6.0,93,0.00,,,0.03,weatherlink.com 1.10,2013-01-14 09:39:00,
2013-01-14 04:54:00,40.3,38.0,30.05,West,271,0.0,11.0,92,0.00,,,0.03,weatherlink.com 1.10,2013-01-14 09:54:00,
2013-01-14 05:09:00,40.4,38.0,30.06,West,274,2.0,3.0,92,0.00,,,0.03,weatherlink.com 1.10,2013-01-14 10:09:00,
2013-01-14 05:25:00,40.2,38.0,30.08,NW,319,0.0,7.0,92,0.00,,,0.03,weatherlink.com 1.10,2013-01-14 10:25:00,
2013-01-14 05:39:00,40.1,38.0,30.09,NNE,15,4.0,7.0,90,0.00,,,0.03,weatherlink.com 1.10,2013-01-14 10:39:00,
2013-01-14 05:54:00,39.8,37.0,30.10,NNW,331,7.0,9.0,90,0.00,,,0.03,weatherlink.com 1.10,2013-01-14 10:54:00,
2013-01-14 06:09:00,39.7,37.0,30.12,NW,312,3.0,11.0,91,0.00,,,0.03,weatherlink.com 1.10,2013-01-14 11:09:00,
2013-01-14 06:24:00,39.5,36.0,30.14,NNW,335,2.0,8.0,88,0.00,,,0.03,weatherlink.com 1.10,2013-01-14 11:24:00,
2013-01-14 06:39:00,39.1,35.0,30.15,WSW,250,3.0,11.0,86,0.00,,,0.03,weatherlink.com 1.10,2013-01-14 11:39:00,
2013-01-14 06:54:00,38.8,34.0,30.16,NW,309,2.0,8.0,84,0.00,,,0.03,weatherlink.com 1.10,2013-01-14 11:54:00,
2013-01-14 07:09:00,38.6,34.0,30.17,NNE,20,2.0,8.0,83,0.00,,,0.03,weatherlink.com 1.10,2013-01-14 12:09:00,
2013-01-14 07:24:00,38.5,34.0,30.18,NNW,331,2.0,9.0,83,0.00,,,0.03,weatherlink.com 1.10,2013-01-14 12:24:00,
2013-01-14 07:39:00,38.5,34.0,30.19,West,270,0.0,7.0,83,0.00,,,0.03,weatherlink.com 1.10,2013-01-14 12:39:00,
2013-01-14 07:55:00,38.4,34.0,30.20,NNE,22,5.0,9.0,83,0.00,,,0.03,weatherlink.com 1.10,2013-01-14 12:55:00,
2013-01-14 08:10:00,38.4,33.0,30.21,NNE,18,2.0,10.0,82,0.00,,,0.03,weatherlink.com 1.10,2013-01-14 13:10:00,
2013-01-14 08:25:00,38.3,34.0,30.22,WSW,246,1.0,5.0,83,0.00,,,0.03,weatherlink.com 1.10,2013-01-14 13:25:00,
2013-01-14 08:40:00,38.3,33.0,30.23,West,274,1.0,5.0,81,0.00,,,0.03,weatherlink.com 1.10,2013-01-14 13:40:00,
2013-01-14 08:55:00,37.9,32.0,30.23,NNW,340,0.0,7.0,79,0.00,,,0.03,weatherlink.com 1.10,2013-01-14 13:55:00,
2013-01-14 09:10:00,38.0,31.0,30.24,West,280,3.0,8.0,77,0.00,,,0.03,weatherlink.com 1.10,2013-01-14 14:10:00,
2013-01-14 09:25:00,37.9,31.0,30.26,West,271,4.0,8.0,75,0.00,,,0.03,weatherlink.com 1.10,2013-01-14 14:25:00,
2013-01-14 09:40:00,37.5,30.0,30.27,WNW,298,4.0,11.0,74,0.00,,,0.03,weatherlink.com 1.10,2013-01-14 14:40:00,
2013-01-14 09:55:00,37.4,30.0,30.27,WNW,297,3.0,9.0,74,0.00,,,0.03,weatherlink.com 1.10,2013-01-14 14:55:00,
2013-01-14 10:10:00,37.3,30.0,30.27,NNW,333,2.0,8.0,74,0.00,,,0.03,weatherlink.com 1.10,2013-01-14 15:10:00,
2013-01-14 10:25:00,37.4,30.0,30.28,WNW,296,1.0,6.0,75,0.00,,,0.03,weatherlink.com 1.10,2013-01-14 15:25:00,
2013-01-14 10:40:00,37.7,30.0,30.27,NNW,340,6.0,8.0,74,0.00,,,0.03,weatherlink.com 1.10,2013-01-14 15:40:00,
2013-01-14 10:55:00,37.9,30.0,30.27,WSW,245,1.0,4.0,73,0.00,,,0.03,weatherlink.com 1.10,2013-01-14 15:55:00,
2013-01-14 11:10:00,38.5,31.0,30.27,NW,320,2.0,7.0,73,0.00,,,0.03,weatherlink.com 1.10,2013-01-14 16:10:00,
2013-01-14 11:25:00,38.3,31.0,30.26,West,263,0.0,6.0,74,0.00,,,0.03,weatherlink.com 1.10,2013-01-14 16:25:00,
2013-01-14 11:40:00,38.5,31.0,30.26,NNW,346,2.0,7.0,73,0.00,,,0.03,weatherlink.com 1.10,2013-01-14 16:40:00,
2013-01-14 11:55:00,38.5,30.0,30.26,NNE,16,4.0,6.0,72,0.00,,,0.03,weatherlink.com 1.10,2013-01-14 16:55:00,
2013-01-14 12:10:00,37.7,29.0,30.25,NNW,331,3.0,9.0,72,0.00,,,0.03,weatherlink.com 1.10,2013-01-14 17:10:00,
2013-01-14 12:25:00,37.1,28.0,30.25,NW,320,4.0,6.0,71,0.00,,,0.03,weatherlink.com 1.10,2013-01-14 17:25:00,
2013-01-14 12:40:00,37.7,29.0,30.25,WNW,293,1.0,6.0,70,0.00,,,0.03,weatherlink.com 1.10,2013-01-14 17:40:00,
2013-01-14 12:55:00,38.3,29.0,30.25,West,279,0.0,3.0,68,0.00,,,0.03,weatherlink.com 1.10,2013-01-14 17:55:00,
2013-01-14 13:10:00,39.2,30.0,30.24,WSW,248,0.0,4.0,70,0.00,,,0.03,weatherlink.com 1.10,2013-01-14 18:10:00,
2013-01-14 13:25:00,39.8,30.0,30.23,North,4,7.0,7.0,67,0.00,,,0.03,weatherlink.com 1.10,2013-01-14 18:25:00,
2013-01-14 13:40:00,39.1,29.0,30.23,NW,309,2.0,5.0,67,0.00,,,0.03,weatherlink.com 1.10,2013-01-14 18:40:00,
2013-01-14 13:55:00,38.7,29.0,30.23,NNW,347,2.0,6.0,67,0.00,,,0.03,weatherlink.com 1.10,2013-01-14 18:55:00,
2013-01-14 14:10:00,39.2,27.0,30.21,North,11,3.0,5.0,63,0.00,,,0.03,weatherlink.com 1.10,2013-01-14 19:10:00,
2013-01-14 14:25:00,38.8,27.0,30.18,WSW,252,0.0,6.0,64,0.00,,,0.03,weatherlink.com 1.10,2013-01-14 19:25:00,
2013-01-14 14:40:00,39.0,28.0,30.18,NNE,29,2.0,8.0,64,0.00,,,0.03,weatherlink.com 1.10,2013-01-14 19:40:00,
2013-01-14 14:55:00,39.2,27.0,30.22,NNW,345,2.0,7.0,62,0.00,,,0.03,weatherlink.com 1.10,2013-01-14 19:55:00,
2013-01-14 15:10:00,39.3,28.0,30.23,NNW,335,4.0,9.0,63,0.00,,,0.03,weatherlink.com 1.10,2013-01-14 20:10:00,
2013-01-14 15:25:00,39.2,27.0,30.24,North,357,2.0,7.0,62,0.00,,,0.03,weatherlink.com 1.10,2013-01-14 20:25:00,
2013-01-14 15:40:00,38.8,27.0,30.25,NW,306,3.0,7.0,64,0.00,,,0.03,weatherlink.com 1.10,2013-01-14 20:40:00,
2013-01-14 15:55:00,38.7,27.0,30.25,NE,39,5.0,8.0,64,0.00,,,0.03,weatherlink.com 1.10,2013-01-14 20:55:00,
2013-01-14 16:10:00,37.8,27.0,30.25,North,9,6.0,15.0,66,0.00,,,0.03,weatherlink.com 1.10,2013-01-14 21:10:00,
2013-01-14 16:25:00,37.1,27.0,30.29,North,357,3.0,10.0,67,0.00,,,0.03,weatherlink.com 1.10,2013-01-14 21:25:00,
2013-01-14 16:40:00,36.7,27.0,30.27,NNW,347,8.0,9.0,67,0.00,,,0.03,weatherlink.com 1.10,2013-01-14 21:40:00,
2013-01-14 16:55:00,36.0,26.0,30.28,NW,320,1.0,11.0,68,0.00,,,0.03,weatherlink.com 1.10,2013-01-14 21:55:00,
2013-01-14 17:10:00,35.6,26.0,30.29,NW,319,4.0,10.0,68,0.00,,,0.03,weatherlink.com 1.10,2013-01-14 22:10:00,
2013-01-14 17:26:00,35.3,26.0,30.29,NNW,343,7.0,9.0,69,0.00,,,0.03,weatherlink.com 1.10,2013-01-14 22:26:00,
2013-01-14 17:41:00,35.1,26.0,30.33,North,354,1.0,8.0,69,0.00,,,0.03,weatherlink.com 1.10,2013-01-14 22:41:00,
2013-01-14 17:56:00,34.7,25.0,30.34,North,1,5.0,9.0,68,0.00,,,0.03,weatherlink.com 1.10,2013-01-14 22:56:00,
2013-01-14 18:11:00,34.2,25.0,30.34,NNW,342,5.0,11.0,69,0.00,,,0.03,weatherlink.com 1.10,2013-01-14 23:11:00,
2013-01-14 18:26:00,33.8,25.0,30.34,WNW,297,1.0,9.0,70,0.00,,,0.03,weatherlink.com 1.10,2013-01-14 23:26:00,
2013-01-14 18:41:00,33.4,25.0,30.35,NNW,347,7.0,11.0,71,0.00,,,0.03,weatherlink.com 1.10,2013-01-14 23:41:00,
2013-01-14 18:56:00,33.0,24.0,30.34,North,359,7.0,11.0,70,0.00,,,0.03,weatherlink.com 1.10,2013-01-14 23:56:00,
2013-01-14 19:11:00,32.4,24.0,30.33,North,354,5.0,12.0,71,0.00,,,0.03,weatherlink.com 1.10,2013-01-15 00:11:00,
2013-01-14 19:26:00,32.5,24.0,30.34,North,9,1.0,5.0,71,0.00,,,0.03,weatherlink.com 1.10,2013-01-15 00:26:00,
2013-01-14 19:41:00,32.4,24.0,30.35,North,349,4.0,6.0,71,0.00,,,0.03,weatherlink.com 1.10,2013-01-15 00:41:00,
2013-01-14 19:56:00,32.1,24.0,30.35,North,349,1.0,5.0,71,0.00,,,0.03,weatherlink.com 1.10,2013-01-15 00:56:00,
2013-01-14 20:11:00,32.1,24.0,30.35,NNE,15,3.0,3.0,72,0.00,,,0.03,weatherlink.com 1.10,2013-01-15 01:11:00,
2013-01-14 20:26:00,32.0,24.0,30.33,NNE,13,0.0,1.0,72,0.00,,,0.03,weatherlink.com 1.10,2013-01-15 01:26:00,
2013-01-14 20:41:00,32.0,24.0,30.32,North,357,0.0,2.0,73,0.00,,,0.03,weatherlink.com 1.10,2013-01-15 01:41:00,
2013-01-14 20:56:00,32.1,24.0,30.32,NNE,28,0.0,3.0,72,0.00,,,0.03,weatherlink.com 1.10,2013-01-15 01:56:00,
2013-01-14 21:11:00,32.1,24.0,30.32,NNE,16,3.0,3.0,72,0.00,,,0.03,weatherlink.com 1.10,2013-01-15 02:11:00,
2013-01-14 21:26:00,32.1,24.0,30.32,NNW,341,4.0,5.0,73,0.00,,,0.03,weatherlink.com 1.10,2013-01-15 02:26:00,
2013-01-14 21:41:00,32.0,24.0,30.34,WNW,288,5.0,9.0,73,0.00,,,0.03,weatherlink.com 1.10,2013-01-15 02:41:00,
2013-01-14 21:56:00,31.7,24.0,30.32,NNW,347,6.0,7.0,74,0.00,,,0.03,weatherlink.com 1.10,2013-01-15 02:56:00,
2013-01-14 22:11:00,31.4,24.0,30.33,North,352,2.0,9.0,74,0.00,,,0.03,weatherlink.com 1.10,2013-01-15 03:11:00,
2013-01-14 22:26:00,31.0,24.0,30.32,North,8,1.0,6.0,75,0.00,,,0.03,weatherlink.com 1.10,2013-01-15 03:26:00,
2013-01-14 22:41:00,31.1,24.0,30.30,North,10,2.0,3.0,75,0.00,,,0.03,weatherlink.com 1.10,2013-01-15 03:41:00,
2013-01-14 22:56:00,31.2,24.0,30.29,East,80,0.0,3.0,76,0.00,,,0.03,weatherlink.com 1.10,2013-01-15 03:56:00,
2013-01-14 23:11:00,31.1,24.0,30.27,East,82,3.0,4.0,75,0.00,,,0.03,weatherlink.com 1.10,2013-01-15 04:11:00,
2013-01-14 23:26:00,31.2,24.0,30.28,North,11,2.0,3.0,76,0.00,,,0.03,weatherlink.com 1.10,2013-01-15 04:26:00,
2013-01-14 23:41:00,31.0,24.0,30.29,NNE,27,3.0,4.0,76,0.00,,,0.03,weatherlink.com 1.10,2013-01-15 04:41:00,
2013-01-14 23:56:00,31.0,25.0,30.29,North,1,1.0,6.0,77,0.00,,,0.03,weatherlink.com 1.10,2013-01-15 04:56:00,